This is the latest recevied weather packets stored in our database for station/object N6GPM. If no packets are shown the sender has not sent any weather packets the latest 10 day(s).
| Time | Temp. | Humidity | Pressure | Rain* | Wind** | Luminosity | Snow |
|---|---|---|---|---|---|---|---|
| 1787856708 | 35.56° C | 31% | 1017.6 hPa | 0 mm | - | 573 W/m² | - |
| 1787856403 | 36.11° C | 29% | 1017.6 hPa | 0 mm | - | 1063 W/m² | - |
| 1787856098 | 36.11° C | 30% | 1017.9 hPa | 0 mm | - | 1099 W/m² | - |
| 1787855793 | 35° C | 30% | 1017.8 hPa | 0 mm | - | 929 W/m² | - |
| 1787855488 | 35° C | 29% | 1018 hPa | 0 mm | - | 448 W/m² | - |
| 1787855183 | 35° C | 31% | 1018 hPa | 0 mm | - | 698 W/m² | - |
| 1787854879 | 34.44° C | 32% | 1018 hPa | 0 mm | - | 638 W/m² | - |
| 1787854573 | 35° C | 31% | 1018.2 hPa | 0 mm | - | 687 W/m² | - |
| 1787854267 | 35° C | 30% | 1018.2 hPa | 0 mm | - | 638 W/m² | - |
| 1787853962 | 34.44° C | 31% | 1018.3 hPa | 0 mm | - | 542 W/m² | - |
| 1787853656 | 33.89° C | 32% | 1018.1 hPa | 0 mm | - | 858 W/m² | - |
| 1787853355 | 33.33° C | 33% | 1018.3 hPa | 0 mm | - | 833 W/m² | - |
| 1787853044 | 33.33° C | 34% | 1018.4 hPa | 0 mm | - | 953 W/m² | - |
| 1787852739 | 33.89° C | 34% | 1018.3 hPa | 0 mm | - | 879 W/m² | - |
| 1787852438 | 33.33° C | 35% | 1018.2 hPa | 0 mm | - | 845 W/m² | - |
| 1787852137 | 32.78° C | 36% | 1018.1 hPa | 0 mm | - | 829 W/m² | - |
| 1787851828 | 32.78° C | 37% | 1018.1 hPa | 0 mm | - | 736 W/m² | - |
| 1787851527 | 32.22° C | 35% | 1017.9 hPa | 0 mm | - | 571 W/m² | - |
| 1787851226 | 32.22° C | 36% | 1018.2 hPa | 0 mm | - | 762 W/m² | - |
| 1787850922 | 32.22° C | 35% | 1018.5 hPa | 0 mm | - | 687 W/m² | - |
| 1787850619 | 31.11° C | 40% | 1018.2 hPa | 0 mm | - | 774 W/m² | - |
| 1787850313 | 30° C | 42% | 1018.2 hPa | 0 mm | - | 773 W/m² | - |
| 1787850008 | 30° C | 42% | 1018.2 hPa | 0 mm | - | 672 W/m² | - |
| 1787849702 | 30° C | 42% | 1018.5 hPa | 0 mm | - | 642 W/m² | - |
| 1787849398 | 30° C | 42% | 1018.3 hPa | 0 mm | - | 610 W/m² | - |
* Rain latest hour (hover to see other rain measurements)
** Current wind speed in m/s (hover to see current wind gust speed)